AirNav  
 
Fuel
  

A88 Gunsight Mountain Airport
Gunsight Mountain Lodge, Alaska, USA


FAA INFORMATION EFFECTIVE 04 SEPTEMBER 2003

Location

FAA Identifier: A88
Lat/Long: 61-53-58.147N / 147-19-22.871W
61-53.96912N / 147-19.38118W
61.8994853 / -147.3230197
(estimated)
Elevation: 2950 ft. / 899 m (estimated)
Variation: 26E (1985)

Airport Operations

Airport use: Open to the public
Sectional chart: ANCHORAGE BUY IT NOW
Control tower: no
ARTCC: ANCHORAGE CENTER
FSS: KENAI FLIGHT SERVICE STATION [1-800-WX-BRIEF]
NOTAMs facility: SMU (NOTAM-D service available)
Attendance: DAYLIGHT HOURS
Wind indicator: yes
Segmented circle: no
Beacon: unknown

Airport Communications

CTAF: 122.9
WX AWOS-3 at HNE (0.5 nm E): 134.95 (907-822-3011)

Airport Services

Fuel available: 80
Airframe service: NONE
Powerplant service: NONE
Bottled oxygen: NONE
Bulk oxygen: NONE

Runway Information

Runway 3/21

Dimensions: 1200 x 60 ft. / 366 x 18 m
Surface: turf/dirt
RUNWAY 3  RUNWAY 21
Traffic pattern: leftright
Markings: nonenone
Runway end identifier lights: nono
Obstructions: tree, 300 ft. from runway, 20:1 slope to clearnone

Airport Operational Statistics

Aircraft based on the field: 1
Single engine airplanes: 1
    
Aircraft operations: 200/year
50% transient general aviation
50% local general aviation

Additional Remarks

FACILITY NOT MAINTD WINTER.
 
Loc | Ops | Rwys | Biz | Links
Com | Nav | Svcs | Stats | Notes
 
Area around A88 (Gunsight Mountain Airport)
 
No photo
 
Airport distance calculator
Flying to Gunsight Mountain Airport? Find the distance to fly.

From to A88

Sunrise and sunset
Times for 27-Oct-2003
 Local
(UTC-8)
 Zulu
(UTC)
Morning civil twilight08:2116:21
Sunrise09:0817:08
Sunset17:5901:59
Evening civil twilight18:4602:46
 
METAR
PAZK 270915Z AUTO 01006KT 10SM BKN004 OVC110 M04/M05 A2997 RMK AO1
PASP 270151Z 00000KT 20SM FEW060 01/M01 A2983 RMK ESTIMATED PASS OPEN MAX 3.9 MIN -9.4 NOSPECI LAST

 
 

Would you like to see your business listed on this page?

 If your business provides an interesting product or service to pilots, flight crews, aircraft, or users of the Gunsight Mountain Airport, you should consider listing it here.  To start the listing process, click on the button below
 
Add a business
 

Other Pages about Gunsight Mountain Airport

Add a link
 
Copyright © AirNav, LLC. All rights reserved. Privacy Policy  Contact